• Join FlightAware (Why Join?)
  • Login
  • US Flag 
Trick or treat! (Boo!!) 
10:01PM EDT


 

Airport Tracker/Info


-or-


 

Live Flight TrackerFlight Track Log ✈ EJA396 ✈ 18-Dec-2013 ✈ KPWK - KIND

Flight Track Log - Related Links

Times and Time Zones

All times are in EST time to prevent confusion due to time zone crossing. See the EJA396 flight status page for this flight to view local times or setup timezone preferences in your user account.

Time Position Orientation Groundspeed Altitude Reporting Facility
EST Latitude Longitude Course Direction KTS MPH feet Rate Location/Type
06:54PM 42.1167 -87.8667 45° Northeast 210 242 1,900  Level Chicago TRACON
06:55PM 42.1667 -87.8000 45° Northeast 266 306 5,700 3,780 Climbing Chicago TRACON
06:56PM 42.1333 -87.7000 114° Southeast 321 369 9,100 3,600 Climbing Chicago TRACON
06:56PM 42.1069 -87.6933 169° South 307 353 11,000 3,060 Climbing Chicago Center
06:57PM 42.0353 -87.7314 202° Southwest 278 320 14,000 1,920 Climbing Chicago Center
06:58PM 41.9567 -87.7678 199° South 297 342 15,000 420 Climbing Chicago Center
07:00PM 41.8403 -87.7739 182° South 369 425 15,000  Level Chicago Center
07:01PM 41.7386 -87.7175 158° South 392 451 15,000  Level Chicago Center
07:02PM 41.6361 -87.6619 158° South 395 455 15,000  Level Chicago Center
07:03PM 41.5328 -87.6056 158° South 397 457 15,000  Level Chicago Center
07:04PM 41.4103 -87.5378 157° South 395 455 15,000  Level Chicago Center
07:05PM 41.3092 -87.4833 158° South 392 451 15,000  Level Chicago Center
07:06PM 41.2061 -87.4281 158° South 396 456 15,000 -120 Level Chicago Center
07:07PM 41.1031 -87.3728 158° South 399 459 14,800 -120 Descending Chicago Center
07:08PM 40.9994 -87.3169 158° South 401 461 14,800 60 Level Chicago Center
07:09PM 40.8964 -87.2639 159° South 399 459 15,000 60 Climbing Chicago Center
07:10PM 40.7944 -87.2081 157° South 398 458 15,000  Level Chicago Center
07:11PM 40.6725 -87.1431 158° South 394 453 15,000  Level Chicago Center
07:12PM 40.5778 -87.0931 158° South 396 456 15,000  Level Chicago Center
07:13PM 40.4758 -87.0386 158° South 397 457 15,000 -120 Level Chicago Center
07:14PM 40.3531 -86.9750 158° South 397 457 14,800 -600 Descending Chicago Center
07:15PM 40.2553 -86.9222 158° South 382 440 13,800 -900 Descending Chicago Center
07:16PM 40.1617 -86.8658 155° Southeast 375 432 13,000 -480 Descending Chicago Center
07:17PM 40.1156 -86.8042 134° Southeast 383 441 13,000  Level Indianapolis Center
07:18PM 40.0442 -86.6997 132° Southeast 389 448 13,000 -240 Level Indianapolis Center
07:19PM 39.9731 -86.5967 132° Southeast 386 444 12,600 -1,380 Descending Indianapolis Center
07:20PM 39.8931 -86.4806 132° Southeast 372 428 10,200 -2,160 Descending Indianapolis Center
07:21PM 39.8397 -86.3914 128° Southeast 341 392 8,200 -2,400 Descending Indianapolis Center
07:22PM 39.8486 -86.2731 84° East 330 380 5,300 -2,040 Descending Indianapolis Center
07:23PM 39.8858 -86.1789 63° Northeast 310 357 4,000 -900 Descending Indianapolis Center
07:24PM 39.8419 -86.1433 148° Southeast 230 265 3,500 -540 Descending Indianapolis Center
07:25PM 39.8072 -86.1675 208° Southwest 170 196 3,000 -480 Descending Indianapolis Center
07:26PM 39.7822 -86.2011 226° Southwest 142 163 2,600 -660 Descending Indianapolis Center
07:27PM 39.7503 -86.2419 225° Southwest 136 157 1,700 -780 Descending Indianapolis Center
07:28PM 39.7283 -86.2678 222° Southwest 120 138 1,100 -480 Descending Indianapolis Center
07:29PM 39.7114 -86.2897 225° Southwest 96 110 800 -180 Descending Indianapolis Center
07:30PM 39.7114 -86.2872 90° East 53 61 800  Level Indianapolis Center